Hauptseite
METAR-TAF:

METAR-TAF

Flughäfen :

Flughafen Mailand-Linate

Mailand, Italien

Breite: 45-26N, Länge: 009-17E, Höhe: 107 m

Beobachtung

Neuester Wetterbericht von vor 17 Minuten, um 07:50 UTC
Wind 2 kt aus unterschiedlichen Richtungen
Temperatur 11°C
Luftfeuchtigkeit 76%
Luftdruck 1025 hPa
Sichtweite 10 km oder mehr
keine Wolken unter 1500 m und keine Kumulonimbus oder Gewitterwolken

METAR: LIML 230750Z VRB02KT CAVOK 11/07 Q1025 NOSIG

Zeit: 10:07 (08:07 UTC)

Prognose

Neuester Wetterbericht von vor 3 Stunden und 7 Minuten, um 05:00 UTC
Gültige Prognose vom 23 um 06 UTC bis 24 um 06 UTC
Wind 5 kt aus unterschiedlichen Richtungen
Sichtweite 10 km oder mehr
keine Wolken unter 1500 m und keine Kumulonimbus oder Gewitterwolken

TAF: LIML 230500Z 2306/2406 VRB05KT CAVOK

Wetterbeobachtungen und Prognosen von mehr als 4000 Flughäfen (METAR und TAF Bericht).

Die verfügbaren Stationen werden durch gelbe und rote Markierungen auf der Karte dargestellt.

Führen Sie die Maus auf sie, um den Namen der Station zu sehen.

Darauf klicken, um die Beobachtung von Wetterbeobachtungen und Prognosen zu sehen.

Um die Karte zu ändern : klicken Sie auf den grünen Tasten mit einem schwarzen Kreuz Zum Vergrößern, auf den grünen Button mit einem Gedankenstrich zu verkleinern, oder auf die grünen Pfeile für benachbarte Karten.


METAR-TAF: